createdAt,value
2018-01-25T00:00:11.989Z,5.61
2018-01-25T00:01:11.207Z,5.68
2018-01-25T00:02:13.522Z,5.62
2018-01-25T00:03:11.492Z,5.57
2018-01-25T00:04:12.571Z,5.58
2018-01-25T00:05:11.711Z,5.6
2018-01-25T00:06:11.257Z,5.55
2018-01-25T00:07:11.104Z,5.61
2018-01-25T00:08:12.536Z,5.63
2018-01-25T00:09:12.962Z,5.6
2018-01-25T00:10:11.201Z,5.56
2018-01-25T00:11:11.203Z,5.65
2018-01-25T00:12:10.434Z,5.66
2018-01-25T00:13:12.239Z,5.58
2018-01-25T00:14:11.465Z,5.66
2018-01-25T00:15:10.865Z,5.61
2018-01-25T00:16:13.105Z,5.64
2018-01-25T00:17:12.482Z,5.67
2018-01-25T00:18:10.567Z,5.64
2018-01-25T00:19:14.430Z,5.59
2018-01-25T00:20:10.942Z,5.57
2018-01-25T00:21:11.375Z,5.57
2018-01-25T00:22:13.531Z,5.56
2018-01-25T00:23:11.694Z,5.59
2018-01-25T00:24:10.824Z,5.57
2018-01-25T00:25:12.859Z,5.54
2018-01-25T00:26:12.226Z,5.61
2018-01-25T00:27:11.602Z,5.56
2018-01-25T00:28:11.480Z,5.52
2018-01-25T00:29:11.923Z,5.64
2018-01-25T00:30:10.745Z,5.73
2018-01-25T00:31:12.234Z,5.62
2018-01-25T00:32:10.761Z,5.65
2018-01-25T00:33:10.608Z,5.64
2018-01-25T00:34:12.433Z,5.62
2018-01-25T00:35:10.616Z,5.62
2018-01-25T00:36:12.440Z,5.57
2018-01-25T00:37:12.438Z,5.58
2018-01-25T00:38:11.492Z,5.58
2018-01-25T00:39:10.745Z,5.64
2018-01-25T00:40:12.170Z,5.65
2018-01-25T00:41:12.154Z,5.65
2018-01-25T00:42:10.727Z,5.57
2018-01-25T00:43:10.628Z,5.56
2018-01-25T00:44:12.537Z,5.52
2018-01-25T00:45:10.551Z,5.58
2018-01-25T00:46:10.664Z,5.62
2018-01-25T00:47:10.667Z,5.56
2018-01-25T00:48:11.139Z,5.63
2018-01-25T00:49:12.153Z,5.58
2018-01-25T00:52:12.422Z,5.48
2018-01-25T00:53:11.341Z,5.46
2018-01-25T00:54:10.738Z,5.4
2018-01-25T00:55:11.183Z,5.4
2018-01-25T00:58:27.716Z,5.35
2018-01-25T00:59:12.099Z,5.34
2018-01-25T01:00:10.812Z,5.35
2018-01-25T01:01:11.522Z,5.38
2018-01-25T01:02:12.871Z,5.35
2018-01-25T01:03:10.863Z,5.33
2018-01-25T01:04:10.767Z,5.3
2018-01-25T01:05:14.086Z,5.31
2018-01-25T01:06:10.717Z,5.26
2018-01-25T01:07:11.507Z,5.3
2018-01-25T01:08:10.925Z,5.32
2018-01-25T01:09:11.488Z,5.33
2018-01-25T01:10:11.778Z,5.36
2018-01-25T01:11:10.940Z,5.36
2018-01-25T01:12:11.575Z,5.36
2018-01-25T01:13:11.612Z,5.37
2018-01-25T01:14:10.684Z,5.35
2018-01-25T01:15:10.592Z,5.3
2018-01-25T01:16:10.811Z,5.3
2018-01-25T01:17:10.590Z,5.3
2018-01-25T01:18:10.603Z,5.28
2018-01-25T01:19:10.637Z,5.3
2018-01-25T01:20:10.719Z,5.33
2018-01-25T01:21:10.610Z,5.28
2018-01-25T01:22:10.798Z,5.21
2018-01-25T01:23:10.692Z,5.24
2018-01-25T01:24:10.668Z,5.28
2018-01-25T01:25:10.662Z,5.35
2018-01-25T01:26:10.887Z,5.28
2018-01-25T01:27:10.880Z,5.39
2018-01-25T01:28:10.615Z,5.42
2018-01-25T01:29:10.816Z,5.34
2018-01-25T01:30:10.730Z,5.34
2018-01-25T01:31:10.644Z,5.41
2018-01-25T01:32:10.702Z,5.37
2018-01-25T01:33:10.737Z,5.47
2018-01-25T01:34:10.784Z,5.41
2018-01-25T01:35:10.803Z,5.44
2018-01-25T01:36:10.672Z,5.45
2018-01-25T01:37:10.707Z,5.46
2018-01-25T01:38:10.750Z,5.47
2018-01-25T01:39:10.698Z,5.54
2018-01-25T01:40:10.686Z,5.56
2018-01-25T01:41:10.591Z,5.55
2018-01-25T01:42:10.838Z,5.59
2018-01-25T01:43:10.648Z,5.61
2018-01-25T01:44:10.784Z,5.54
2018-01-25T01:45:10.741Z,5.56
2018-01-25T01:46:10.652Z,5.58
2018-01-25T01:47:10.798Z,5.6
2018-01-25T01:48:10.739Z,5.61
2018-01-25T01:49:10.736Z,5.52
2018-01-25T01:50:10.768Z,5.56
2018-01-25T01:51:10.637Z,5.53
2018-01-25T01:52:10.754Z,5.47
2018-01-25T01:53:10.652Z,5.47
2018-01-25T01:54:10.680Z,5.5
2018-01-25T01:55:10.758Z,5.43
2018-01-25T01:56:10.703Z,5.47
2018-01-25T01:57:10.751Z,5.48
2018-01-25T01:58:10.647Z,5.43
2018-01-25T01:59:10.685Z,5.43
2018-01-25T02:00:09.772Z,5.43
2018-01-25T02:01:09.970Z,5.46
2018-01-25T02:02:09.889Z,5.51
2018-01-25T02:03:09.717Z,5.43
2018-01-25T02:04:09.796Z,5.49
2018-01-25T02:05:09.822Z,5.45
2018-01-25T02:06:09.752Z,5.41
2018-01-25T02:07:09.705Z,5.39
2018-01-25T02:08:09.711Z,5.39
2018-01-25T02:09:09.821Z,5.3
2018-01-25T02:10:09.738Z,5.24
2018-01-25T02:11:09.673Z,5.33
2018-01-25T02:12:09.701Z,5.36
2018-01-25T02:13:09.733Z,5.33
2018-01-25T02:14:09.714Z,5.38
2018-01-25T02:15:09.686Z,5.31
2018-01-25T02:16:09.782Z,5.28
2018-01-25T02:17:09.841Z,5.25
2018-01-25T02:18:09.736Z,5.35
2018-01-25T02:19:09.864Z,5.26
2018-01-25T02:20:09.698Z,5.32
2018-01-25T02:21:09.784Z,5.3
2018-01-25T02:22:09.839Z,5.3
2018-01-25T02:23:09.801Z,5.26
2018-01-25T02:24:10.412Z,5.25
2018-01-25T02:25:09.871Z,5.26
2018-01-25T02:26:09.790Z,5.25
2018-01-25T02:27:09.873Z,5.29
2018-01-25T02:28:09.951Z,5.28
2018-01-25T02:29:09.909Z,5.27
2018-01-25T02:30:10.018Z,5.26
2018-01-25T02:31:09.971Z,5.33
2018-01-25T02:32:09.894Z,5.27
2018-01-25T02:33:09.892Z,5.31
2018-01-25T02:34:09.803Z,5.34
2018-01-25T02:35:09.932Z,5.29
2018-01-25T02:36:09.706Z,5.31
2018-01-25T02:37:09.756Z,5.33
2018-01-25T02:39:22.728Z,5.26
2018-01-25T02:40:09.796Z,5.31
2018-01-25T02:41:09.766Z,5.31
2018-01-25T02:42:09.859Z,5.26
2018-01-25T02:43:09.809Z,5.25
2018-01-25T02:44:09.899Z,5.32
2018-01-25T02:45:09.733Z,5.32
2018-01-25T02:46:09.875Z,5.36
2018-01-25T02:47:09.800Z,5.35
2018-01-25T02:48:09.786Z,5.38
2018-01-25T02:49:09.848Z,5.21
2018-01-25T02:50:09.800Z,5.3
2018-01-25T02:51:09.877Z,5.26
2018-01-25T02:52:09.825Z,5.31
2018-01-25T02:53:09.812Z,5.29
2018-01-25T02:54:09.858Z,5.25
2018-01-25T02:55:09.760Z,5.35
2018-01-25T02:56:09.788Z,5.4
2018-01-25T02:57:09.840Z,5.22
2018-01-25T02:58:09.754Z,5.33
2018-01-25T02:59:09.735Z,5.24
2018-01-25T03:00:09.860Z,5.29
2018-01-25T03:01:09.754Z,5.3
2018-01-25T03:02:09.883Z,5.38
2018-01-25T03:03:10.212Z,5.38
2018-01-25T03:04:09.848Z,5.3
2018-01-25T03:05:09.830Z,5.29
2018-01-25T03:06:10.008Z,5.35
2018-01-25T03:07:09.920Z,5.35
2018-01-25T03:08:09.828Z,5.34
2018-01-25T03:09:09.769Z,5.39
2018-01-25T03:10:09.786Z,5.38
2018-01-25T03:11:09.848Z,5.36
2018-01-25T03:12:09.923Z,5.37
2018-01-25T03:13:09.885Z,5.3
2018-01-25T03:14:09.802Z,5.4
2018-01-25T03:15:09.859Z,5.45
2018-01-25T03:16:09.929Z,5.4
2018-01-25T03:17:09.832Z,5.41
2018-01-25T03:18:09.832Z,5.46
2018-01-25T03:19:09.967Z,5.41
2018-01-25T03:20:09.860Z,5.4
2018-01-25T03:21:09.933Z,5.39
2018-01-25T03:22:09.853Z,5.45
2018-01-25T03:23:09.882Z,5.44
2018-01-25T03:24:09.889Z,5.42
2018-01-25T03:25:09.854Z,5.49
2018-01-25T03:26:09.907Z,5.46
2018-01-25T03:27:09.888Z,5.43
2018-01-25T03:28:09.846Z,5.44
2018-01-25T03:29:09.908Z,5.39
2018-01-25T03:30:09.967Z,5.41
2018-01-25T03:31:09.866Z,5.4
2018-01-25T03:32:09.944Z,5.43
2018-01-25T03:33:10.013Z,5.42
2018-01-25T03:34:09.967Z,5.41
2018-01-25T03:35:09.996Z,5.38
2018-01-25T03:36:10.009Z,5.42
2018-01-25T03:37:10.803Z,5.39
2018-01-25T03:38:09.884Z,5.43
2018-01-25T03:39:09.824Z,5.4
2018-01-25T03:40:10.012Z,5.48
2018-01-25T03:41:09.987Z,5.49
2018-01-25T03:43:12.464Z,5.52
2018-01-25T03:44:09.894Z,5.52
2018-01-25T03:45:09.976Z,5.55
2018-01-25T03:46:09.907Z,5.48
2018-01-25T03:47:09.980Z,5.51
2018-01-25T03:48:09.825Z,5.52
2018-01-25T03:50:09.926Z,5.53
2018-01-25T03:53:25.893Z,5.57
2018-01-25T03:54:09.970Z,5.48
2018-01-25T03:55:10.043Z,5.46
2018-01-25T03:56:09.894Z,5.53
2018-01-25T03:57:09.909Z,5.61
2018-01-25T03:58:09.915Z,5.59
2018-01-25T03:59:10.000Z,5.51
2018-01-25T04:00:10.092Z,5.59
2018-01-25T04:01:10.090Z,5.54
2018-01-25T04:02:09.891Z,5.58
2018-01-25T04:03:10.041Z,5.51
2018-01-25T04:04:10.096Z,5.49
2018-01-25T04:05:09.983Z,5.52
2018-01-25T04:06:09.956Z,5.55
2018-01-25T04:07:10.051Z,5.65
2018-01-25T04:08:09.944Z,5.6
2018-01-25T04:09:09.909Z,5.64
2018-01-25T04:10:09.944Z,5.54
2018-01-25T04:11:09.962Z,5.58
2018-01-25T04:12:10.060Z,5.57
2018-01-25T04:13:09.880Z,5.48
2018-01-25T04:14:09.920Z,5.57
2018-01-25T04:15:10.031Z,5.52
2018-01-25T04:16:10.086Z,5.53
2018-01-25T04:17:09.995Z,5.54
2018-01-25T04:18:10.025Z,5.51
2018-01-25T04:19:09.933Z,5.55
2018-01-25T04:20:09.951Z,5.52
2018-01-25T04:21:10.047Z,5.56
2018-01-25T04:22:10.171Z,5.4
2018-01-25T04:23:09.906Z,5.49
2018-01-25T04:24:09.941Z,5.5
2018-01-25T04:25:09.998Z,5.54
2018-01-25T04:26:09.998Z,5.52
2018-01-25T04:27:09.961Z,5.47
2018-01-25T04:28:10.027Z,5.48
2018-01-25T04:29:09.965Z,5.55
2018-01-25T04:30:11.088Z,5.49
2018-01-25T04:31:11.113Z,5.49
2018-01-25T04:32:11.262Z,5.58
2018-01-25T04:33:10.069Z,5.52
2018-01-25T04:34:09.975Z,5.45
2018-01-25T04:35:09.978Z,5.54
2018-01-25T04:36:09.936Z,5.44
2018-01-25T04:37:10.082Z,5.45
2018-01-25T04:38:10.106Z,5.41
2018-01-25T04:39:10.037Z,5.48
2018-01-25T04:40:09.973Z,5.41
2018-01-25T04:41:10.021Z,5.4
2018-01-25T04:42:10.104Z,5.44
2018-01-25T04:43:10.033Z,5.48
2018-01-25T04:44:09.938Z,5.47
2018-01-25T04:45:10.079Z,5.53
2018-01-25T04:46:10.085Z,5.46
2018-01-25T04:47:10.061Z,5.49
2018-01-25T04:48:10.088Z,5.52
2018-01-25T04:49:10.021Z,5.48
2018-01-25T04:50:10.026Z,5.45
2018-01-25T04:51:09.988Z,5.46
2018-01-25T04:52:10.017Z,5.45
2018-01-25T04:53:10.098Z,5.42
2018-01-25T04:54:10.116Z,5.36
2018-01-25T04:55:09.988Z,5.44
2018-01-25T04:56:10.178Z,5.41
2018-01-25T04:57:10.084Z,5.45
2018-01-25T04:58:09.987Z,5.44
2018-01-25T04:59:10.083Z,5.53
2018-01-25T05:00:10.146Z,5.45
2018-01-25T05:01:10.115Z,5.39
2018-01-25T05:02:09.973Z,5.48
2018-01-25T05:03:10.066Z,5.44
2018-01-25T05:04:10.010Z,5.47
2018-01-25T05:05:10.195Z,5.51
2018-01-25T05:06:10.128Z,5.43
2018-01-25T05:07:10.043Z,5.44
2018-01-25T05:08:10.117Z,5.48
2018-01-25T05:09:10.138Z,5.36
2018-01-25T05:10:10.034Z,5.42
2018-01-25T05:11:10.149Z,5.32
2018-01-25T05:12:10.140Z,5.44
2018-01-25T05:13:10.767Z,5.45
2018-01-25T05:14:10.068Z,5.29
2018-01-25T05:15:10.104Z,5.38
2018-01-25T05:16:10.006Z,5.37
2018-01-25T05:17:10.129Z,5.29
2018-01-25T05:18:09.932Z,5.32
2018-01-25T05:19:10.042Z,5.39
2018-01-25T05:20:10.059Z,5.41
2018-01-25T05:21:10.235Z,5.43
2018-01-25T05:22:10.093Z,5.36
2018-01-25T05:23:10.125Z,5.39
2018-01-25T05:24:09.939Z,5.46
2018-01-25T05:25:10.072Z,5.34
2018-01-25T05:26:09.953Z,5.3
2018-01-25T05:27:10.083Z,5.37
2018-01-25T05:28:10.058Z,5.4
2018-01-25T05:29:10.060Z,5.37
2018-01-25T05:30:10.080Z,5.4
2018-01-25T05:31:10.068Z,5.4
2018-01-25T05:32:10.194Z,5.33
2018-01-25T05:33:10.192Z,5.28
2018-01-25T05:34:10.260Z,5.23
2018-01-25T05:35:10.174Z,5.29
2018-01-25T05:36:10.153Z,5.22
2018-01-25T05:37:10.250Z,5.36
2018-01-25T05:38:10.170Z,5.42
2018-01-25T05:39:10.236Z,5.3
2018-01-25T05:40:10.118Z,5.37
2018-01-25T05:41:10.130Z,5.39
2018-01-25T05:42:10.186Z,5.36
2018-01-25T05:43:10.011Z,5.38
2018-01-25T05:44:10.065Z,5.32
2018-01-25T05:45:10.021Z,5.26
2018-01-25T05:46:10.112Z,5.31
2018-01-25T05:47:10.031Z,5.3
2018-01-25T05:48:10.021Z,5.39
2018-01-25T05:49:10.101Z,5.4
2018-01-25T05:50:10.052Z,5.39
2018-01-25T05:51:10.077Z,5.43
2018-01-25T05:52:10.033Z,5.3
2018-01-25T05:53:10.006Z,5.32
2018-01-25T05:54:10.115Z,5.38
2018-01-25T05:55:09.991Z,5.25
2018-01-25T05:56:10.019Z,5.25
2018-01-25T05:57:10.108Z,5.29
2018-01-25T05:58:10.014Z,5.24
2018-01-25T05:59:10.216Z,5.27
2018-01-25T06:00:10.237Z,5.31
2018-01-25T06:01:10.041Z,5.2
2018-01-25T06:02:10.002Z,5.31
2018-01-25T06:03:10.154Z,5.28
2018-01-25T06:04:10.100Z,5.2
2018-01-25T06:05:10.179Z,5.2
2018-01-25T06:06:10.132Z,5.24
2018-01-25T06:07:10.063Z,5.3
2018-01-25T06:08:10.306Z,5.22
2018-01-25T06:09:10.145Z,5.26
2018-01-25T06:10:10.108Z,5.21
2018-01-25T06:11:10.180Z,5.2
2018-01-25T06:12:10.156Z,5.18
2018-01-25T06:13:10.100Z,5.26
2018-01-25T06:14:10.186Z,5.24
2018-01-25T06:15:10.236Z,5.34
2018-01-25T06:16:10.195Z,5.22
2018-01-25T06:17:10.207Z,5.23
2018-01-25T06:18:10.447Z,5.26
2018-01-25T06:19:10.221Z,5.25
2018-01-25T06:20:10.221Z,5.34
2018-01-25T06:21:10.248Z,5.34
2018-01-25T06:22:10.235Z,5.23
2018-01-25T06:23:10.745Z,5.31
2018-01-25T06:24:10.118Z,5.29
2018-01-25T06:25:10.241Z,5.3
2018-01-25T06:26:10.196Z,5.34
2018-01-25T06:27:10.213Z,5.44
2018-01-25T06:28:10.131Z,5.4
2018-01-25T06:29:09.980Z,5.37
2018-01-25T06:30:10.134Z,5.29
2018-01-25T06:31:10.063Z,5.26
2018-01-25T06:32:10.067Z,5.34
2018-01-25T06:33:10.452Z,5.44
2018-01-25T06:34:10.200Z,5.4
2018-01-25T06:35:10.138Z,5.47
2018-01-25T06:36:10.244Z,5.4
2018-01-25T06:37:10.015Z,5.38
2018-01-25T06:38:10.264Z,5.4
2018-01-25T06:39:10.179Z,5.39
2018-01-25T06:40:10.117Z,5.49
2018-01-25T06:41:10.109Z,5.38
2018-01-25T06:42:10.113Z,5.5
2018-01-25T06:43:10.218Z,5.47
2018-01-25T06:44:10.161Z,5.41
2018-01-25T06:45:10.139Z,5.49
2018-01-25T06:46:10.147Z,5.49
2018-01-25T06:47:10.064Z,5.54
2018-01-25T06:48:10.075Z,5.55
2018-01-25T06:49:10.304Z,5.51
2018-01-25T06:50:10.115Z,5.48
2018-01-25T06:51:10.078Z,5.53
2018-01-25T06:52:10.150Z,5.5
2018-01-25T06:53:10.130Z,5.52
2018-01-25T06:54:10.097Z,5.5
2018-01-25T06:55:10.059Z,5.5
2018-01-25T06:56:10.055Z,5.55
2018-01-25T06:57:10.140Z,5.54
2018-01-25T06:58:10.112Z,5.46
2018-01-25T06:59:10.151Z,5.55
2018-01-25T07:00:10.161Z,5.53
2018-01-25T07:01:10.339Z,5.53
2018-01-25T07:02:10.117Z,5.56
2018-01-25T07:03:10.238Z,5.6
2018-01-25T07:04:10.201Z,5.61
2018-01-25T07:05:10.248Z,5.65
2018-01-25T07:06:10.270Z,5.56
2018-01-25T07:07:10.154Z,5.58
2018-01-25T07:08:10.210Z,5.56
2018-01-25T07:09:10.132Z,5.56
2018-01-25T07:10:10.207Z,5.57
2018-01-25T07:11:10.349Z,5.63
2018-01-25T07:12:10.291Z,5.63
2018-01-25T07:13:10.153Z,5.64
2018-01-25T07:14:10.172Z,5.68
2018-01-25T07:15:10.205Z,5.71
2018-01-25T07:16:10.223Z,5.68
2018-01-25T07:17:10.169Z,5.64
2018-01-25T07:18:10.277Z,5.52
2018-01-25T07:19:10.219Z,5.6
2018-01-25T07:20:10.197Z,5.63
2018-01-25T07:21:10.093Z,5.66
2018-01-25T07:22:10.308Z,5.7
2018-01-25T07:23:10.225Z,5.72
2018-01-25T07:24:10.120Z,5.75
2018-01-25T07:25:10.234Z,5.83
2018-01-25T07:26:10.333Z,5.73
2018-01-25T07:27:10.191Z,5.79
2018-01-25T07:28:10.284Z,5.78
2018-01-25T07:29:10.253Z,5.79
2018-01-25T07:30:10.285Z,5.78
2018-01-25T07:31:10.145Z,5.76
2018-01-25T07:32:10.220Z,5.82
2018-01-25T07:33:10.329Z,5.73
2018-01-25T07:34:10.233Z,5.78
2018-01-25T07:35:10.732Z,5.76
2018-01-25T07:36:10.267Z,5.65
2018-01-25T07:37:10.264Z,5.71
2018-01-25T07:38:10.288Z,5.72
2018-01-25T07:39:10.298Z,5.7
2018-01-25T07:40:10.458Z,5.72
2018-01-25T07:41:10.335Z,5.72
2018-01-25T07:42:10.391Z,5.73
2018-01-25T07:43:10.371Z,5.7
2018-01-25T07:44:10.301Z,5.7
2018-01-25T07:45:10.525Z,5.7
2018-01-25T07:46:10.319Z,5.7
2018-01-25T07:47:10.239Z,5.63
2018-01-25T07:48:10.263Z,5.76
2018-01-25T07:49:10.233Z,5.7
2018-01-25T07:50:10.276Z,5.67
2018-01-25T07:51:10.409Z,5.71
2018-01-25T07:52:10.241Z,5.72
2018-01-25T07:53:10.224Z,5.72
2018-01-25T07:54:10.256Z,5.66
2018-01-25T07:55:10.373Z,5.78
2018-01-25T07:56:10.388Z,5.71
2018-01-25T07:57:10.261Z,5.67
2018-01-25T07:58:10.223Z,5.67
2018-01-25T07:59:10.260Z,5.7
2018-01-25T08:00:10.216Z,5.66
2018-01-25T08:01:10.444Z,5.71
2018-01-25T08:02:10.186Z,5.71
2018-01-25T08:03:10.678Z,5.79
2018-01-25T08:04:10.754Z,5.73
2018-01-25T08:05:10.458Z,5.69
2018-01-25T08:06:11.344Z,5.75
2018-01-25T08:07:10.518Z,5.8
2018-01-25T08:08:10.569Z,5.74
2018-01-25T08:09:10.552Z,5.77
2018-01-25T08:10:10.538Z,5.74
2018-01-25T08:11:10.547Z,5.75
2018-01-25T08:12:10.557Z,5.78
2018-01-25T08:13:10.757Z,5.95
2018-01-25T08:14:10.475Z,6.11
2018-01-25T08:15:10.474Z,6.07
2018-01-25T08:16:10.472Z,5.9
2018-01-25T08:17:10.519Z,5.95
2018-01-25T08:18:10.588Z,5.89
2018-01-25T08:19:10.509Z,5.87
2018-01-25T08:20:10.503Z,5.86
2018-01-25T08:21:10.657Z,5.86
2018-01-25T08:22:10.652Z,5.9
2018-01-25T08:23:10.671Z,5.94
2018-01-25T08:24:10.615Z,5.87
2018-01-25T08:25:10.638Z,5.88
2018-01-25T08:26:10.589Z,5.9
2018-01-25T08:27:10.523Z,5.89
2018-01-25T08:28:10.677Z,5.93
2018-01-25T08:29:10.621Z,6.01
2018-01-25T08:30:10.674Z,5.98
2018-01-25T08:31:10.488Z,5.95
2018-01-25T08:32:10.516Z,5.93
2018-01-25T08:33:10.567Z,5.94
2018-01-25T08:34:10.521Z,5.98
2018-01-25T08:35:10.491Z,6.04
2018-01-25T08:36:10.727Z,5.97
2018-01-25T08:37:10.563Z,5.93
2018-01-25T08:38:10.555Z,5.91
2018-01-25T08:39:11.219Z,5.92
2018-01-25T08:40:10.607Z,5.85
2018-01-25T08:41:10.593Z,5.88
2018-01-25T08:42:10.595Z,5.84
2018-01-25T08:43:10.742Z,5.84
2018-01-25T08:44:10.688Z,5.78
2018-01-25T08:45:10.618Z,5.75
2018-01-25T08:46:10.671Z,5.73
2018-01-25T08:47:10.663Z,5.76
2018-01-25T08:48:10.657Z,5.66
2018-01-25T08:49:10.630Z,5.67
2018-01-25T08:50:10.589Z,5.6
2018-01-25T08:51:10.576Z,5.48
2018-01-25T08:52:10.598Z,5.53
2018-01-25T08:53:10.616Z,5.64
2018-01-25T08:54:10.669Z,5.65
2018-01-25T08:55:10.507Z,5.62
2018-01-25T08:56:10.544Z,5.7
2018-01-25T08:57:10.466Z,5.69
2018-01-25T08:58:11.117Z,5.7
2018-01-25T08:59:10.630Z,5.67
2018-01-25T09:00:10.607Z,5.63
2018-01-25T09:01:10.582Z,5.5
2018-01-25T09:02:10.471Z,5.59
2018-01-25T09:03:10.691Z,5.63
2018-01-25T09:04:10.727Z,5.57
2018-01-25T09:05:10.777Z,5.5
2018-01-25T09:06:10.640Z,5.62
2018-01-25T09:07:10.534Z,5.55
2018-01-25T09:08:10.724Z,5.54
2018-01-25T09:09:10.724Z,5.64
2018-01-25T09:10:10.921Z,5.46
2018-01-25T09:11:10.543Z,5.53
2018-01-25T09:12:10.556Z,5.51
2018-01-25T09:13:10.779Z,5.61
2018-01-25T09:14:10.678Z,5.47
2018-01-25T09:15:10.700Z,5.58
2018-01-25T09:16:10.626Z,5.53
2018-01-25T09:17:10.684Z,5.55
2018-01-25T09:18:10.603Z,5.54
2018-01-25T09:19:10.673Z,5.49
2018-01-25T09:20:10.644Z,5.52
2018-01-25T09:21:10.785Z,5.6
2018-01-25T09:22:10.892Z,5.61
2018-01-25T09:23:10.675Z,5.53
2018-01-25T09:24:10.665Z,5.37
2018-01-25T09:25:10.722Z,5.41
2018-01-25T09:26:10.695Z,5.41
2018-01-25T09:27:10.801Z,5.47
2018-01-25T09:28:10.744Z,5.44
2018-01-25T09:29:10.691Z,5.49
2018-01-25T09:30:10.642Z,5.54
2018-01-25T09:31:10.636Z,5.36
2018-01-25T09:32:10.796Z,5.37
2018-01-25T09:33:10.730Z,5.33
2018-01-25T09:34:09.776Z,5.36
2018-01-25T09:35:09.668Z,5.4
2018-01-25T09:36:09.709Z,5.27
2018-01-25T09:37:09.604Z,5.36
2018-01-25T09:38:09.823Z,5.39
2018-01-25T09:39:09.784Z,5.32
2018-01-25T09:40:09.767Z,5.27
2018-01-25T09:41:09.728Z,5.33
2018-01-25T09:42:09.666Z,5.32
2018-01-25T09:43:09.615Z,5.42
2018-01-25T09:44:09.753Z,5.44
2018-01-25T09:45:09.733Z,5.26
2018-01-25T09:46:09.728Z,5.33
2018-01-25T09:47:09.849Z,5.36
2018-01-25T09:48:09.768Z,5.32
2018-01-25T09:49:09.722Z,5.31
2018-01-25T09:50:09.699Z,5.4
2018-01-25T09:51:09.746Z,5.44
2018-01-25T09:52:09.814Z,5.39
2018-01-25T09:53:09.764Z,5.41
2018-01-25T09:54:09.709Z,5.47
2018-01-25T09:55:09.775Z,5.48
2018-01-25T09:56:09.899Z,5.48
2018-01-25T09:57:09.788Z,5.41
2018-01-25T09:58:09.735Z,5.41
2018-01-25T09:59:09.832Z,5.47
2018-01-25T10:00:09.868Z,5.42
2018-01-25T10:01:09.743Z,5.5
2018-01-25T10:02:09.589Z,5.37
2018-01-25T10:03:09.825Z,5.4
2018-01-25T10:04:09.788Z,5.39
2018-01-25T10:05:09.838Z,5.4
2018-01-25T10:06:09.751Z,5.5
2018-01-25T10:07:09.803Z,5.47
2018-01-25T10:08:09.819Z,5.49
2018-01-25T10:09:09.771Z,5.52
2018-01-25T10:10:09.755Z,5.39
2018-01-25T10:11:09.774Z,5.42
2018-01-25T10:12:09.929Z,5.48
2018-01-25T10:13:09.824Z,5.46
2018-01-25T10:14:09.718Z,5.49
2018-01-25T10:15:09.701Z,5.57
2018-01-25T10:16:09.720Z,5.64
2018-01-25T10:17:09.815Z,5.71
2018-01-25T10:18:09.793Z,5.72
2018-01-25T10:19:09.806Z,5.86
2018-01-25T10:20:09.838Z,5.82
2018-01-25T10:21:09.803Z,5.86
2018-01-25T10:22:09.826Z,5.86
2018-01-25T10:23:09.817Z,5.92
2018-01-25T10:24:09.917Z,5.96
2018-01-25T10:25:09.923Z,6.08
2018-01-25T10:26:09.812Z,6.12
2018-01-25T10:27:09.781Z,6.15
2018-01-25T10:28:09.813Z,6.21
2018-01-25T10:29:09.856Z,6.28
2018-01-25T10:30:09.800Z,6.35
2018-01-25T10:31:09.934Z,6.36
2018-01-25T10:32:09.800Z,6.4
2018-01-25T10:33:09.733Z,6.41
2018-01-25T10:34:09.878Z,6.45
2018-01-25T10:35:09.954Z,6.45
2018-01-25T10:36:09.819Z,6.49
2018-01-25T10:37:09.861Z,6.49
2018-01-25T10:38:09.832Z,6.53
2018-01-25T10:39:09.759Z,6.44
2018-01-25T10:40:09.854Z,6.48
2018-01-25T10:41:09.929Z,6.5
2018-01-25T10:42:09.933Z,6.48
2018-01-25T10:43:10.046Z,6.53
2018-01-25T10:44:09.921Z,6.52
2018-01-25T10:45:10.438Z,6.44
2018-01-25T10:46:10.024Z,6.47
2018-01-25T10:47:10.030Z,6.49
2018-01-25T10:48:09.888Z,6.53
2018-01-25T10:49:10.428Z,6.51
2018-01-25T10:50:09.997Z,6.59
2018-01-25T10:51:09.955Z,6.65
2018-01-25T10:52:09.894Z,6.73
2018-01-25T10:53:09.824Z,6.61
2018-01-25T10:54:10.534Z,6.67
2018-01-25T10:55:11.355Z,6.55
2018-01-25T10:56:10.532Z,6.62
2018-01-25T10:57:09.853Z,6.65
2018-01-25T10:58:10.515Z,6.63
2018-01-25T10:59:10.612Z,6.62
2018-01-25T11:00:12.913Z,6.62
2018-01-25T11:01:10.681Z,6.56
2018-01-25T11:02:09.894Z,6.56
2018-01-25T11:03:11.324Z,6.6
2018-01-25T11:04:10.942Z,6.52
2018-01-25T11:05:10.758Z,6.58
2018-01-25T11:06:11.275Z,6.63
2018-01-25T11:07:10.713Z,6.65
2018-01-25T11:08:11.969Z,6.6
2018-01-25T11:09:10.958Z,6.62
2018-01-25T11:10:10.967Z,6.66
2018-01-25T11:11:10.646Z,6.64
2018-01-25T11:12:10.129Z,6.65
2018-01-25T11:13:10.137Z,6.67
2018-01-25T11:14:10.252Z,6.67
2018-01-25T11:15:10.550Z,6.66
2018-01-25T11:16:10.963Z,6.66
2018-01-25T11:17:11.473Z,6.62
2018-01-25T11:18:11.563Z,6.62
2018-01-25T11:19:10.157Z,6.64
2018-01-25T11:20:11.482Z,6.61
2018-01-25T11:21:13.764Z,6.59
2018-01-25T11:22:10.201Z,6.61
2018-01-25T11:23:11.230Z,6.57
2018-01-25T11:24:10.100Z,6.61
2018-01-25T11:25:10.157Z,6.6
2018-01-25T11:26:11.177Z,6.53
2018-01-25T11:27:13.942Z,6.58
2018-01-25T11:28:12.288Z,6.49
2018-01-25T11:29:10.800Z,6.51
2018-01-25T11:30:10.863Z,6.51
2018-01-25T11:31:11.571Z,6.38
2018-01-25T11:32:12.987Z,6.39
2018-01-25T11:33:10.197Z,6.41
2018-01-25T11:34:10.315Z,6.48
2018-01-25T11:35:10.936Z,6.44
2018-01-25T11:36:11.000Z,6.4
2018-01-25T11:37:10.164Z,6.39
2018-01-25T11:38:10.202Z,6.42
2018-01-25T11:39:10.824Z,6.3
2018-01-25T11:40:10.195Z,6.35
2018-01-25T11:41:10.283Z,6.35
2018-01-25T11:42:10.227Z,6.32
2018-01-25T11:43:10.191Z,6.33
2018-01-25T11:44:10.148Z,6.27
2018-01-25T11:45:10.208Z,6.34
2018-01-25T11:46:10.229Z,6.2
2018-01-25T11:47:10.112Z,6.34
2018-01-25T11:48:10.244Z,6.15
2018-01-25T11:49:10.195Z,6.07
2018-01-25T11:50:10.092Z,6.11
2018-01-25T11:51:10.180Z,6.06
2018-01-25T11:52:10.175Z,6.02
2018-01-25T11:53:10.220Z,6.02
2018-01-25T11:54:10.140Z,6.09
2018-01-25T11:55:10.200Z,6.07
2018-01-25T11:56:10.279Z,6.1
2018-01-25T11:57:10.168Z,6.11
2018-01-25T11:58:10.270Z,6.21
2018-01-25T11:59:10.151Z,6.21
2018-01-25T12:00:10.142Z,6.24
2018-01-25T12:01:10.095Z,6.16
2018-01-25T12:02:10.248Z,6.24
2018-01-25T12:03:10.297Z,6.26
2018-01-25T12:04:10.441Z,6.09
2018-01-25T12:05:10.380Z,6.16
2018-01-25T12:06:10.455Z,6.2
2018-01-25T12:07:10.513Z,6.17
2018-01-25T12:08:10.514Z,6.19
2018-01-25T12:09:10.504Z,6.36
2018-01-25T12:10:10.389Z,6.3
2018-01-25T12:11:10.483Z,6.25
2018-01-25T12:12:10.384Z,6.18
2018-01-25T12:13:10.435Z,6.26
2018-01-25T12:14:10.565Z,6.26
2018-01-25T12:15:10.416Z,6.37
2018-01-25T12:16:10.566Z,6.24
2018-01-25T12:17:10.484Z,6.27
2018-01-25T12:18:10.457Z,6.25
2018-01-25T12:19:10.402Z,6.17
2018-01-25T12:20:10.561Z,6.24
2018-01-25T12:21:10.555Z,5.95
2018-01-25T12:22:10.434Z,6.06
2018-01-25T12:23:10.428Z,6.02
2018-01-25T12:24:10.513Z,6.05
2018-01-25T12:25:10.511Z,5.96
2018-01-25T12:26:10.563Z,6.02
2018-01-25T12:27:10.501Z,5.93
2018-01-25T12:28:10.434Z,5.96
2018-01-25T12:29:10.378Z,6.1
2018-01-25T12:30:10.414Z,6.21
2018-01-25T12:31:10.591Z,6.06
2018-01-25T12:32:10.479Z,6.04
2018-01-25T12:33:10.552Z,5.92
2018-01-25T12:34:11.516Z,6.04
2018-01-25T12:35:09.835Z,6.12
2018-01-25T12:36:09.816Z,6.03
2018-01-25T12:37:09.687Z,5.89
2018-01-25T12:38:09.676Z,6.06
2018-01-25T12:39:09.679Z,5.93
2018-01-25T12:40:09.718Z,5.88
2018-01-25T12:41:09.776Z,6.06
2018-01-25T12:42:09.622Z,6.11
2018-01-25T12:43:09.728Z,5.96
2018-01-25T12:44:09.773Z,5.84
2018-01-25T12:45:09.764Z,5.9
2018-01-25T12:46:09.708Z,5.93
2018-01-25T12:47:09.726Z,5.97
2018-01-25T12:48:09.809Z,6.11
2018-01-25T12:49:09.811Z,6.11
2018-01-25T12:50:09.656Z,6.11
2018-01-25T12:51:09.716Z,6.17
2018-01-25T12:52:09.721Z,6.07
2018-01-25T12:53:09.710Z,6.22
2018-01-25T12:54:09.771Z,6.2
2018-01-25T12:55:09.766Z,6.1
2018-01-25T12:56:09.894Z,6.11
2018-01-25T12:57:09.716Z,6.06
2018-01-25T12:58:09.684Z,6.04
2018-01-25T12:59:09.733Z,6.14
2018-01-25T13:00:09.839Z,5.95
2018-01-25T13:01:09.647Z,5.98
2018-01-25T13:02:09.803Z,5.96
2018-01-25T13:03:09.648Z,6.03
2018-01-25T13:04:09.698Z,5.99
2018-01-25T13:05:09.905Z,5.96
2018-01-25T13:06:09.713Z,5.92
2018-01-25T13:07:09.722Z,5.78
2018-01-25T13:08:09.758Z,5.9
2018-01-25T13:09:09.829Z,5.92
2018-01-25T13:10:09.805Z,6
2018-01-25T13:11:09.752Z,6.07
2018-01-25T13:12:09.684Z,6.1
2018-01-25T13:13:09.702Z,6.01
2018-01-25T13:14:09.754Z,6.07
2018-01-25T13:15:09.828Z,6.09
2018-01-25T13:16:09.718Z,5.91
2018-01-25T13:17:09.720Z,5.76
2018-01-25T13:18:09.737Z,5.86
2018-01-25T13:19:09.956Z,5.94
2018-01-25T13:20:09.787Z,5.85
2018-01-25T13:21:09.817Z,5.9
2018-01-25T13:22:09.886Z,5.95
2018-01-25T13:23:09.880Z,6.03
2018-01-25T13:24:09.873Z,5.97
2018-01-25T13:25:09.807Z,5.89
2018-01-25T13:26:09.704Z,6.01
2018-01-25T13:27:09.853Z,6.01
2018-01-25T13:28:09.889Z,5.72
2018-01-25T13:29:09.808Z,5.93
2018-01-25T13:30:09.826Z,5.85